Time;durP1;ratioP1;P1;durP2;ratioP2;P2;SDS_P1;SDS_P2;PMS_P1;PMS_P2;Temp;Humidity;BMP_temperature;BMP_pressure;BME280_temperature;BME280_humidity;BME280_pressure;Samples;Min_cycle;Max_cycle;Signal;HPM_P1;HPM_P2
2022/09/30 00:00:19;;;;;;;10.52;6.10;;;11.40;75.30;;;;;;5116003;28;20030;-64
2022/09/30 00:02:45;;;;;;;10.05;5.88;;;11.40;75.30;;;;;;5116324;28;20039;-63
2022/09/30 00:05:11;;;;;;;10.82;5.95;;;11.40;75.30;;;;;;5116470;28;20032;-64
2022/09/30 00:07:36;;;;;;;9.30;5.57;;;11.40;75.40;;;;;;5116856;27;20035;-63
2022/09/30 00:10:02;;;;;;;9.32;5.55;;;11.40;75.40;;;;;;5124294;27;20023;-64
2022/09/30 00:12:28;;;;;;;11.27;6.32;;;11.40;75.30;;;;;;5114316;27;20028;-64
2022/09/30 00:14:54;;;;;;;9.73;6.20;;;11.40;75.30;;;;;;5116399;28;20043;-63
2022/09/30 00:17:19;;;;;;;9.52;5.88;;;11.30;75.20;;;;;;5132016;27;20027;-63
2022/09/30 00:19:46;;;;;;;10.95;6.00;;;11.30;75.30;;;;;;5115170;28;20023;-64
2022/09/30 00:22:11;;;;;;;11.60;6.40;;;11.30;75.90;;;;;;5115922;28;20027;-64
2022/09/30 00:24:37;;;;;;;11.57;5.63;;;11.30;75.30;;;;;;5125006;27;20081;-64
2022/09/30 00:27:03;;;;;;;9.68;5.75;;;11.30;75.30;;;;;;5115027;28;20043;-64
2022/09/30 00:29:28;;;;;;;9.55;6.03;;;11.30;75.30;;;;;;5115097;28;20020;-63
2022/09/30 00:31:54;;;;;;;9.32;5.45;;;11.20;75.30;;;;;;5115531;28;20084;-63
2022/09/30 00:34:20;;;;;;;12.05;5.82;;;11.20;75.30;;;;;;5115149;28;20356;-63
2022/09/30 00:36:47;;;;;;;11.00;6.03;;;11.20;75.30;;;;;;5115671;27;20368;-63
2022/09/30 00:39:36;;;;;;;8.00;5.07;;;11.20;75.30;;;;;;5115886;28;20046;-63
2022/09/30 00:42:07;;;;;;;9.90;6.00;;;11.20;75.30;;;;;;5119174;27;20344;-64
2022/09/30 00:44:54;;;;;;;9.80;5.80;;;11.20;75.30;;;;;;5114917;28;20035;-63
2022/09/30 00:47:53;;;;;;;8.65;5.40;;;11.20;75.20;;;;;;5115758;28;20133;-63
2022/09/30 00:50:45;;;;;;;8.23;4.80;;;11.10;75.20;;;;;;5115267;28;20091;-64
2022/09/30 00:53:20;;;;;;;9.05;5.28;;;11.10;75.30;;;;;;5114678;28;20062;-63
2022/09/30 00:56:06;;;;;;;8.65;5.35;;;11.10;75.30;;;;;;5115213;28;20059;-63
2022/09/30 00:58:40;;;;;;;9.48;5.40;;;11.10;75.30;;;;;;5122802;27;20051;-63
2022/09/30 01:01:06;;;;;;;9.23;5.47;;;11.00;75.30;;;;;;5115243;28;20030;-64
2022/09/30 01:03:36;;;;;;;10.27;5.80;;;11.00;75.30;;;;;;5114838;28;20095;-64
2022/09/30 01:06:02;;;;;;;9.57;5.80;;;11.00;75.30;;;;;;5115309;28;20035;-63
2022/09/30 01:08:32;;;;;;;9.32;5.40;;;11.00;75.40;;;;;;5114930;28;20039;-64
2022/09/30 01:10:57;;;;;;;8.85;5.55;;;11.00;75.40;;;;;;5129883;27;20110;-63
2022/09/30 01:13:28;;;;;;;9.25;5.55;;;11.00;75.40;;;;;;5117899;27;20039;-64
2022/09/30 01:16:11;;;;;;;9.27;6.03;;;11.00;75.30;;;;;;5100883;28;20040;-64
2022/09/30 01:19:16;;;;;;;10.32;5.47;;;11.00;75.30;;;;;;5114780;28;20054;-64
2022/09/30 01:22:16;;;;;;;9.43;5.53;;;11.00;75.20;;;;;;5115028;28;20027;-64
2022/09/30 01:25:00;;;;;;;9.65;5.35;;;11.00;75.20;;;;;;5103715;27;20059;-64
2022/09/30 01:27:38;;;;;;;10.32;5.97;;;10.90;75.20;;;;;;5117696;27;20440;-63
2022/09/30 01:30:20;;;;;;;8.15;4.95;;;10.90;75.20;;;;;;5114323;28;20034;-64
2022/09/30 01:33:19;;;;;;;10.30;6.05;;;10.90;75.20;;;;;;5114594;28;20042;-64
2022/09/30 01:36:13;;;;;;;10.50;5.93;;;10.90;75.20;;;;;;5114860;28;20369;-64
2022/09/30 01:38:48;;;;;;;10.40;6.28;;;10.90;75.20;;;;;;5114600;28;20019;-64
2022/09/30 01:41:43;;;;;;;10.95;6.00;;;10.80;75.30;;;;;;5125824;28;20076;-63
2022/09/30 01:44:18;;;;;;;10.82;5.97;;;10.80;75.30;;;;;;5114480;28;20102;-64
2022/09/30 01:46:56;;;;;;;11.63;6.43;;;10.80;75.30;;;;;;5114436;28;20019;-64
2022/09/30 01:49:45;;;;;;;9.77;5.70;;;10.80;75.30;;;;;;5126687;27;20111;-64
2022/09/30 01:52:22;;;;;;;10.25;6.05;;;10.80;75.30;;;;;;5106885;28;20111;-64
2022/09/30 01:54:58;;;;;;;10.02;6.00;;;10.70;75.30;;;;;;5118344;28;20020;-64
2022/09/30 01:57:30;;;;;;;11.15;6.40;;;10.70;75.30;;;;;;5125425;27;20031;-64
2022/09/30 02:00:07;;;;;;;9.38;5.50;;;10.70;75.40;;;;;;5123257;27;20036;-64
2022/09/30 02:02:47;;;;;;;9.05;5.43;;;10.70;75.40;;;;;;5119296;28;20311;-64
2022/09/30 02:05:20;;;;;;;9.88;5.30;;;10.70;75.40;;;;;;5118799;28;20030;-64
2022/09/30 02:07:53;;;;;;;9.77;5.47;;;10.70;75.40;;;;;;5115980;28;20080;-64
2022/09/30 02:10:31;;;;;;;10.05;6.45;;;10.70;75.40;;;;;;5118260;28;20450;-64
2022/09/30 02:13:06;;;;;;;9.50;5.50;;;10.70;75.40;;;;;;5116093;28;20035;-64
2022/09/30 02:15:36;;;;;;;9.88;6.00;;;10.70;75.40;;;;;;5133588;27;20464;-63
2022/09/30 02:18:10;;;;;;;9.88;5.55;;;10.60;75.30;;;;;;5112331;27;20027;-64
2022/09/30 02:20:39;;;;;;;9.77;5.63;;;10.60;75.30;;;;;;5120781;27;20035;-63
2022/09/30 02:23:28;;;;;;;10.98;6.18;;;10.60;75.30;;;;;;5117975;28;20030;-64
2022/09/30 02:26:06;;;;;;;9.98;5.85;;;10.60;75.30;;;;;;5115974;27;20122;-64
2022/09/30 02:28:35;;;;;;;10.50;6.22;;;10.60;75.30;;;;;;5118099;27;20525;-64
2022/09/30 02:31:03;;;;;;;10.15;5.55;;;10.60;75.30;;;;;;5115897;27;20063;-63
2022/09/30 02:33:34;;;;;;;9.80;6.28;;;10.50;75.30;;;;;;5117807;28;20100;-64
2022/09/30 02:36:16;;;;;;;9.45;5.78;;;10.50;75.30;;;;;;5116090;28;20061;-63
2022/09/30 02:38:48;;;;;;;10.05;6.03;;;10.60;75.30;;;;;;5104831;28;20070;-64
2022/09/30 02:41:22;;;;;;;7.72;4.75;;;10.50;75.30;;;;;;5132788;27;20098;-64
2022/09/30 02:43:49;;;;;;;9.73;5.95;;;10.50;75.30;;;;;;5117956;28;20394;-64
2022/09/30 02:46:24;;;;;;;9.23;5.80;;;10.50;75.30;;;;;;5117026;27;20043;-64
2022/09/30 02:49:02;;;;;;;8.98;5.43;;;10.50;75.30;;;;;;5117586;28;20039;-63
2022/09/30 02:51:54;;;;;;;11.13;6.47;;;10.50;75.30;;;;;;5117910;27;20058;-63
2022/09/30 02:54:30;;;;;;;9.02;5.45;;;10.40;75.20;;;;;;5117553;28;20109;-63
2022/09/30 02:57:20;;;;;;;11.63;6.00;;;10.40;75.20;;;;;;5115975;27;20118;-63
2022/09/30 02:59:50;;;;;;;10.55;6.07;;;10.40;75.20;;;;;;5117153;28;20042;-64
2022/09/30 03:02:16;;;;;;;9.60;6.05;;;10.40;75.30;;;;;;5116704;27;20023;-64
2022/09/30 03:04:43;;;;;;;10.82;6.18;;;10.40;75.30;;;;;;5117143;28;20474;-64
2022/09/30 03:07:10;;;;;;;9.40;5.88;;;10.40;75.30;;;;;;5115126;27;20024;-64
2022/09/30 03:09:35;;;;;;;9.52;6.38;;;10.40;75.30;;;;;;5117120;28;20031;-64
2022/09/30 03:12:32;;;;;;;9.45;6.20;;;10.40;75.30;;;;;;5115712;28;20035;-64
2022/09/30 03:15:01;;;;;;;9.80;6.03;;;10.30;75.20;;;;;;5116426;28;20048;-63
2022/09/30 03:17:47;;;;;;;10.85;6.05;;;10.30;75.90;;;;;;5116453;28;20108;-64
2022/09/30 03:20:38;;;;;;;10.20;5.30;;;10.30;75.20;;;;;;5116017;28;20082;-63
2022/09/30 03:23:28;;;;;;;10.02;5.70;;;10.30;75.20;;;;;;5124714;27;20026;-63
2022/09/30 03:26:11;;;;;;;10.20;5.60;;;10.30;75.30;;;;;;5111550;28;20561;-63
2022/09/30 03:29:05;;;;;;;9.52;6.15;;;10.30;75.30;;;;;;5133247;27;20027;-63
2022/09/30 03:32:07;;;;;;;9.20;5.63;;;10.20;75.20;;;;;;5115168;28;20084;-63
2022/09/30 03:34:45;;;;;;;10.70;5.40;;;10.20;75.30;;;;;;5109505;28;20035;-64
2022/09/30 03:37:23;;;;;;;10.35;5.97;;;10.20;75.30;;;;;;5115766;28;20039;-63
2022/09/30 03:40:09;;;;;;;10.27;6.13;;;10.20;75.30;;;;;;5127159;27;20440;-63
2022/09/30 03:42:45;;;;;;;10.32;5.47;;;10.20;75.30;;;;;;5116364;27;20023;-63
2022/09/30 03:45:15;;;;;;;9.77;5.90;;;10.20;76.00;;;;;;5116228;28;20087;-63
2022/09/30 03:47:44;;;;;;;8.98;5.63;;;10.20;75.40;;;;;;5128074;27;20024;-63
2022/09/30 03:50:15;;;;;;;9.38;5.53;;;10.20;75.40;;;;;;5107121;28;20031;-63
2022/09/30 03:52:41;;;;;;;9.30;5.30;;;10.20;75.30;;;;;;5116247;27;20023;-63
2022/09/30 03:55:08;;;;;;;8.43;5.07;;;10.20;75.30;;;;;;5116050;27;20028;-63
2022/09/30 03:57:34;;;;;;;9.85;5.72;;;10.20;75.30;;;;;;5115481;28;20351;-63
2022/09/30 04:00:00;;;;;;;11.05;5.60;;;10.20;75.30;;;;;;5116613;28;20080;-63
2022/09/30 04:02:26;;;;;;;9.48;5.60;;;10.20;75.30;;;;;;5115140;27;20470;-63
2022/09/30 04:04:52;;;;;;;8.95;5.32;;;10.20;75.30;;;;;;5114825;28;20024;-63
2022/09/30 04:07:18;;;;;;;9.95;6.10;;;10.20;75.30;;;;;;5116176;28;20056;-63
2022/09/30 04:09:43;;;;;;;9.63;5.80;;;10.10;75.30;;;;;;5115174;27;20019;-63
2022/09/30 04:12:09;;;;;;;9.27;5.47;;;10.10;75.30;;;;;;5114123;28;20098;-64
2022/09/30 04:14:35;;;;;;;14.05;6.35;;;10.10;75.30;;;;;;5115927;28;20031;-64
2022/09/30 04:17:02;;;;;;;10.40;5.97;;;10.10;75.30;;;;;;5116762;28;20425;-63
2022/09/30 04:19:27;;;;;;;9.35;5.55;;;10.10;75.40;;;;;;5115744;28;20456;-63
2022/09/30 04:21:54;;;;;;;10.77;6.43;;;10.10;75.40;;;;;;5117546;27;20059;-64
2022/09/30 04:24:20;;;;;;;10.80;6.30;;;10.00;75.40;;;;;;5125172;27;20028;-63
2022/09/30 04:26:47;;;;;;;10.52;6.60;;;10.00;75.30;;;;;;5117618;27;20036;-64
2022/09/30 04:29:13;;;;;;;10.38;6.15;;;10.00;75.30;;;;;;5115825;28;20169;-63
2022/09/30 04:31:38;;;;;;;9.98;6.38;;;10.00;75.30;;;;;;5114744;27;20122;-63
2022/09/30 04:34:04;;;;;;;9.93;6.10;;;10.00;75.30;;;;;;5113586;28;20027;-63
2022/09/30 04:36:30;;;;;;;11.27;6.75;;;10.00;75.20;;;;;;5119309;27;20031;-63
2022/09/30 04:38:56;;;;;;;10.07;5.93;;;10.00;75.30;;;;;;5120643;27;20119;-65
2022/09/30 04:41:22;;;;;;;11.30;6.28;;;10.00;75.30;;;;;;5121928;27;20176;-63
2022/09/30 04:43:48;;;;;;;10.02;5.90;;;9.90;75.30;;;;;;5113794;28;20451;-63
2022/09/30 04:46:14;;;;;;;11.40;6.68;;;9.90;75.30;;;;;;5114632;28;20115;-64
2022/09/30 04:48:44;;;;;;;10.90;5.75;;;9.90;75.30;;;;;;5114285;28;20040;-63
2022/09/30 04:51:17;;;;;;;9.75;6.18;;;9.90;75.30;;;;;;5114210;28;20348;-63
2022/09/30 04:53:44;;;;;;;11.30;6.57;;;9.90;75.30;;;;;;5114649;27;20032;-63
2022/09/30 04:56:10;;;;;;;10.43;6.07;;;9.90;75.30;;;;;;5114704;28;20028;-63
2022/09/30 04:58:36;;;;;;;10.45;6.45;;;9.90;75.90;;;;;;5115361;28;20047;-63
2022/09/30 05:01:02;;;;;;;10.38;5.88;;;9.90;75.30;;;;;;5114455;27;20023;-63
2022/09/30 05:03:28;;;;;;;11.05;7.00;;;9.90;75.30;;;;;;5114434;28;20062;-63
2022/09/30 05:05:54;;;;;;;9.93;6.05;;;9.90;75.30;;;;;;5115750;28;20055;-63
2022/09/30 05:08:21;;;;;;;10.93;6.10;;;9.80;75.30;;;;;;5113934;28;20032;-62
2022/09/30 05:10:58;;;;;;;13.50;7.07;;;9.80;75.30;;;;;;5114674;27;20080;-63
2022/09/30 05:13:29;;;;;;;10.57;6.13;;;9.80;75.30;;;;;;5115045;28;20114;-63
2022/09/30 05:15:55;;;;;;;12.57;6.60;;;9.80;75.30;;;;;;5128491;27;20424;-63
2022/09/30 05:18:21;;;;;;;9.70;6.55;;;9.80;75.30;;;;;;5117448;27;20027;-63
2022/09/30 05:20:51;;;;;;;10.98;6.82;;;9.80;75.30;;;;;;5114581;28;20028;-63
2022/09/30 05:23:17;;;;;;;14.10;6.57;;;9.80;75.30;;;;;;5126318;27;20044;-63
2022/09/30 05:25:43;;;;;;;10.95;7.03;;;9.70;75.20;;;;;;5120234;27;20070;-63
2022/09/30 05:28:09;;;;;;;11.55;6.45;;;9.70;75.30;;;;;;5114407;28;20460;-63
2022/09/30 05:30:35;;;;;;;10.35;6.68;;;9.70;75.30;;;;;;5114703;28;20023;-63
2022/09/30 05:33:00;;;;;;;11.40;6.45;;;9.70;75.30;;;;;;5115879;27;20051;-63
2022/09/30 05:35:26;;;;;;;11.70;6.70;;;9.70;75.20;;;;;;5117180;27;20436;-63
2022/09/30 05:37:52;;;;;;;10.00;6.60;;;9.70;75.20;;;;;;5119469;28;20042;-63
2022/09/30 05:40:18;;;;;;;11.63;6.55;;;9.70;75.20;;;;;;5123811;28;20440;-63
2022/09/30 05:42:45;;;;;;;10.27;6.78;;;9.70;75.20;;;;;;5114401;28;20084;-63
2022/09/30 05:45:12;;;;;;;11.15;6.45;;;9.70;75.20;;;;;;5114472;28;20092;-63
2022/09/30 05:47:38;;;;;;;10.23;6.57;;;9.70;75.20;;;;;;5112622;28;20106;-63
2022/09/30 05:50:04;;;;;;;11.05;6.03;;;9.70;75.30;;;;;;5115602;28;20038;-63
2022/09/30 05:52:30;;;;;;;10.85;6.32;;;9.70;75.30;;;;;;5114475;28;20125;-63
2022/09/30 05:54:59;;;;;;;11.13;7.68;;;9.70;75.20;;;;;;5111417;28;20107;-63
2022/09/30 05:57:27;;;;;;;12.30;7.15;;;9.70;75.30;;;;;;5117116;28;20038;-63
2022/09/30 05:59:52;;;;;;;13.10;7.35;;;9.70;75.30;;;;;;5114507;28;20390;-63
2022/09/30 06:02:18;;;;;;;11.02;6.97;;;9.70;75.20;;;;;;5115832;28;20019;-63
2022/09/30 06:04:44;;;;;;;12.02;7.43;;;9.80;75.30;;;;;;5127760;28;20016;-64
2022/09/30 06:07:09;;;;;;;12.35;7.38;;;9.80;75.30;;;;;;5100884;28;20016;-64
2022/09/30 06:09:35;;;;;;;13.10;7.75;;;9.80;75.30;;;;;;5114221;28;20451;-64
2022/09/30 06:12:01;;;;;;;11.70;7.07;;;9.80;75.30;;;;;;5114566;28;20055;-64
2022/09/30 06:14:27;;;;;;;10.77;7.18;;;9.80;76.00;;;;;;5113853;28;20168;-64
2022/09/30 06:16:53;;;;;;;11.45;7.30;;;9.80;75.40;;;;;;5129808;28;20056;-65
2022/09/30 06:19:20;;;;;;;12.18;6.95;;;9.80;75.40;;;;;;5130716;28;20103;-64
2022/09/30 06:21:45;;;;;;;10.13;7.10;;;9.80;75.50;;;;;;5114979;28;20444;-64
2022/09/30 06:24:13;;;;;;;11.77;7.88;;;9.80;75.60;;;;;;5113003;28;20076;-64
2022/09/30 06:26:40;;;;;;;13.20;7.45;;;9.80;75.60;;;;;;5129750;28;20031;-64
2022/09/30 06:29:05;;;;;;;10.38;7.25;;;9.90;75.60;;;;;;5113454;28;20364;-64
2022/09/30 06:31:31;;;;;;;12.10;7.32;;;9.90;75.70;;;;;;5114649;28;20015;-63
2022/09/30 06:33:57;;;;;;;10.68;6.85;;;9.90;75.70;;;;;;5131824;27;20059;-64
2022/09/30 06:36:22;;;;;;;12.18;7.20;;;9.90;75.70;;;;;;5100374;28;20019;-65
2022/09/30 06:38:51;;;;;;;11.48;7.38;;;10.00;75.70;;;;;;5128145;27;20106;-63
2022/09/30 06:41:17;;;;;;;11.57;7.50;;;10.00;75.80;;;;;;5118278;27;20028;-63
2022/09/30 06:43:43;;;;;;;12.25;7.85;;;10.10;75.90;;;;;;5117210;27;20038;-63
2022/09/30 06:46:09;;;;;;;11.80;6.90;;;10.10;76.00;;;;;;5134114;27;20042;-63
2022/09/30 06:48:35;;;;;;;10.65;6.18;;;10.20;76.00;;;;;;5134315;27;20437;-64
2022/09/30 06:51:01;;;;;;;10.13;6.65;;;10.20;76.00;;;;;;5118567;27;20106;-62
2022/09/30 06:53:26;;;;;;;10.00;6.80;;;10.20;76.10;;;;;;5118843;27;20066;-62
2022/09/30 06:55:56;;;;;;;11.10;7.25;;;10.30;76.10;;;;;;5142174;27;20023;-62
2022/09/30 06:58:26;;;;;;;11.75;8.25;;;10.30;76.20;;;;;;5116640;28;20023;-62
2022/09/30 07:01:03;;;;;;;12.10;8.13;;;10.40;76.20;;;;;;5116041;28;20062;-62
2022/09/30 07:03:32;;;;;;;13.18;9.35;;;10.50;76.40;;;;;;5116440;27;20023;-64
2022/09/30 07:06:00;;;;;;;14.57;9.13;;;10.50;76.30;;;;;;5116603;28;20039;-64
2022/09/30 07:08:30;;;;;;;13.23;9.18;;;10.60;76.40;;;;;;5114005;27;20027;-64
2022/09/30 07:11:13;;;;;;;13.02;9.05;;;10.60;76.40;;;;;;5122917;27;20035;-66
2022/09/30 07:13:44;;;;;;;15.60;9.57;;;10.70;76.50;;;;;;5132952;27;20151;-66
2022/09/30 07:16:12;;;;;;;15.35;11.10;;;10.70;76.40;;;;;;5115275;28;20043;-65
2022/09/30 07:18:41;;;;;;;17.02;11.32;;;10.80;76.50;;;;;;5114981;28;20094;-66
2022/09/30 07:21:07;;;;;;;19.40;13.85;;;10.80;76.60;;;;;;5116464;27;20087;-65
2022/09/30 07:23:32;;;;;;;19.05;13.45;;;10.90;76.60;;;;;;5116385;28;20084;-65
2022/09/30 07:26:02;;;;;;;19.85;13.90;;;10.90;76.60;;;;;;5116856;28;20027;-64
2022/09/30 07:28:32;;;;;;;21.05;14.60;;;11.00;76.60;;;;;;5115095;28;20039;-65
2022/09/30 07:31:01;;;;;;;18.85;13.82;;;11.10;76.60;;;;;;5111261;27;20046;-64
2022/09/30 07:33:30;;;;;;;22.90;15.23;;;11.10;76.50;;;;;;5123590;27;20045;-65
2022/09/30 07:35:57;;;;;;;24.60;16.20;;;11.20;76.50;;;;;;5106060;27;20054;-65
2022/09/30 07:38:26;;;;;;;22.38;15.18;;;11.20;76.40;;;;;;5117076;28;20120;-65
2022/09/30 07:40:57;;;;;;;20.75;15.45;;;11.40;76.40;;;;;;5117615;27;20054;-65
2022/09/30 07:43:39;;;;;;;23.63;17.23;;;11.50;76.30;;;;;;5117025;28;20034;-65
2022/09/30 07:46:15;;;;;;;22.65;16.17;;;11.60;76.10;;;;;;5118113;27;20030;-65
2022/09/30 07:48:49;;;;;;;24.70;16.33;;;11.70;75.90;;;;;;5121666;27;20148;-65
2022/09/30 07:51:33;;;;;;;22.60;16.83;;;11.90;75.70;;;;;;5110196;27;20023;-65
2022/09/30 07:54:02;;;;;;;25.88;18.05;;;12.10;75.30;;;;;;5116731;28;20019;-65
2022/09/30 07:56:28;;;;;;;25.83;17.90;;;12.30;75.10;;;;;;5097540;28;20031;-65
2022/09/30 07:58:55;;;;;;;24.52;18.23;;;12.40;74.80;;;;;;5125676;27;20015;-65
2022/09/30 08:01:23;;;;;;;24.30;18.52;;;12.60;74.50;;;;;;5116031;27;20036;-66
2022/09/30 08:03:53;;;;;;;25.40;18.38;;;12.80;74.30;;;;;;5103955;28;20039;-64
2022/09/30 08:06:20;;;;;;;25.67;18.20;;;12.80;73.90;;;;;;5115458;27;20023;-65
2022/09/30 08:08:46;;;;;;;24.33;18.58;;;13.00;73.70;;;;;;5115562;28;20035;-65
2022/09/30 08:11:13;;;;;;;24.85;19.05;;;13.10;73.50;;;;;;5117756;27;20027;-65
2022/09/30 08:13:40;;;;;;;22.30;18.45;;;13.30;73.30;;;;;;5115872;27;20027;-66
2022/09/30 08:16:06;;;;;;;26.52;18.13;;;13.40;72.90;;;;;;5115942;28;20052;-65
2022/09/30 08:18:32;;;;;;;23.38;18.17;;;13.60;72.60;;;;;;5114888;27;20417;-65
2022/09/30 08:21:03;;;;;;;24.17;18.65;;;13.70;72.20;;;;;;5123661;27;20020;-65
2022/09/30 08:23:29;;;;;;;23.67;18.50;;;13.90;72.00;;;;;;5115414;28;20106;-65
2022/09/30 08:26:06;;;;;;;21.75;17.75;;;14.00;71.80;;;;;;5116420;28;20102;-65
2022/09/30 08:28:32;;;;;;;21.02;18.40;;;14.20;71.30;;;;;;5116750;28;20031;-65
2022/09/30 08:31:10;;;;;;;22.42;17.63;;;14.40;71.00;;;;;;5115775;27;20386;-65
2022/09/30 08:33:37;;;;;;;23.60;17.50;;;14.60;70.50;;;;;;5123167;27;20488;-65
2022/09/30 08:36:14;;;;;;;22.75;18.60;;;14.80;70.30;;;;;;5116053;28;20031;-65
2022/09/30 08:38:41;;;;;;;23.83;18.95;;;15.00;69.80;;;;;;5115450;28;20055;-65
2022/09/30 08:41:45;;;;;;;23.38;18.92;;;15.20;69.30;;;;;;5115877;28;20023;-65
2022/09/30 08:44:32;;;;;;;23.02;18.67;;;15.40;68.90;;;;;;5115916;28;20111;-65
2022/09/30 08:47:16;;;;;;;20.35;17.77;;;15.60;68.50;;;;;;5130240;27;20037;-65
2022/09/30 08:49:52;;;;;;;25.88;20.33;;;15.80;68.10;;;;;;5119749;27;20044;-65
2022/09/30 08:52:23;;;;;;;22.48;18.67;;;16.00;67.80;;;;;;5115551;28;20314;-65
2022/09/30 08:54:52;;;;;;;22.08;17.55;;;16.10;67.60;;;;;;5115884;28;20041;-65
2022/09/30 08:57:19;;;;;;;21.50;18.13;;;16.30;67.20;;;;;;5115238;28;20028;-65
2022/09/30 08:59:56;;;;;;;21.05;17.27;;;16.50;66.90;;;;;;5114622;28;20042;-65
2022/09/30 09:02:29;;;;;;;20.88;16.92;;;16.60;66.30;;;;;;5127661;27;20031;-65
2022/09/30 09:05:04;;;;;;;19.40;16.38;;;16.70;66.00;;;;;;5114706;28;20041;-66
2022/09/30 09:07:36;;;;;;;18.88;15.73;;;16.90;65.70;;;;;;5114713;28;20027;-65
2022/09/30 09:10:09;;;;;;;18.52;16.20;;;17.00;65.50;;;;;;5116056;28;20513;-65
2022/09/30 09:12:45;;;;;;;;;;;17.10;65.10;;;;;;5116452;28;20035;-66
2022/09/30 09:15:24;;;;;;;15.80;12.73;;;17.20;65.10;;;;;;5117777;27;19923;-65
2022/09/30 09:18:35;;;;;;;15.75;14.00;;;17.30;64.60;;;;;;5114646;28;20118;-66
2022/09/30 09:21:20;;;;;;;17.27;12.82;;;17.40;64.00;;;;;;5091958;28;20045;-65
2022/09/30 09:23:48;;;;;;;15.35;13.73;;;17.50;63.80;;;;;;5114112;28;20042;-65
2022/09/30 09:26:15;;;;;;;18.15;13.32;;;17.60;63.60;;;;;;5114446;28;20045;-65
2022/09/30 09:29:03;;;;;;;14.10;12.07;;;17.70;63.40;;;;;;5115256;28;20024;-65
2022/09/30 09:31:29;;;;;;;16.73;12.93;;;17.70;62.80;;;;;;5114172;28;20035;-65
2022/09/30 09:34:00;;;;;;;17.55;12.57;;;17.80;62.90;;;;;;5115396;28;20340;-66
2022/09/30 09:36:40;;;;;;;;;;;17.80;62.40;;;;;;5115812;28;20036;-66
2022/09/30 09:39:21;;;;;;;14.00;11.45;;;17.90;62.60;;;;;;5125213;28;19908;-65
2022/09/30 09:42:15;;;;;;;15.43;12.35;;;18.00;62.50;;;;;;5114169;28;20020;-65
2022/09/30 09:45:01;;;;;;;13.82;11.38;;;18.10;62.20;;;;;;5108017;28;20031;-66
2022/09/30 09:47:27;;;;;;;14.00;11.52;;;18.20;62.10;;;;;;5109878;28;20176;-65
2022/09/30 09:49:58;;;;;;;15.25;12.38;;;18.20;62.10;;;;;;5114161;28;20511;-67
2022/09/30 09:52:39;;;;;;;16.30;12.68;;;18.30;61.70;;;;;;5116190;28;20055;-66
2022/09/30 09:55:05;;;;;;;13.32;10.82;;;18.40;61.50;;;;;;5117794;28;20027;-66
2022/09/30 09:57:32;;;;;;;15.90;11.90;;;18.50;61.40;;;;;;5114881;28;20164;-66
2022/09/30 10:03:21;;;;;;;15.00;12.40;;;18.60;60.90;;;;;;5114382;28;20023;-66
2022/09/30 10:05:59;;;;;;;15.07;10.85;;;18.70;60.90;;;;;;5113452;28;20468;-65
2022/09/30 10:08:25;;;;;;;15.77;11.02;;;18.80;60.50;;;;;;5121883;27;20101;-65
2022/09/30 10:10:53;;;;;;;15.57;11.30;;;18.80;60.30;;;;;;5117203;28;20454;-65
2022/09/30 10:13:30;;;;;;;13.80;10.35;;;18.90;60.00;;;;;;5117566;28;20103;-65
2022/09/30 10:15:58;;;;;;;12.88;9.98;;;19.00;59.70;;;;;;5117751;28;20138;-66
2022/09/30 10:18:27;;;;;;;13.30;9.88;;;19.00;59.50;;;;;;5118537;28;20042;-65
2022/09/30 10:20:57;;;;;;;12.32;9.13;;;19.00;59.50;;;;;;5117695;28;20041;-67
2022/09/30 10:23:36;;;;;;;15.18;10.23;;;19.10;59.50;;;;;;5116308;28;20023;-65
2022/09/30 10:26:14;;;;;;;13.13;10.15;;;19.10;59.10;;;;;;5104232;28;20027;-67
2022/09/30 10:28:47;;;;;;;13.20;10.02;;;19.10;59.10;;;;;;5116893;27;20031;-66
2022/09/30 10:31:22;;;;;;;12.75;9.85;;;19.10;59.20;;;;;;5117485;28;20100;-66
2022/09/30 10:34:06;;;;;;;11.77;9.45;;;19.20;59.10;;;;;;5118709;28;20028;-65
2022/09/30 10:36:35;;;;;;;11.75;9.35;;;19.20;58.80;;;;;;5119984;27;20093;-66
2022/09/30 10:39:34;;;;;;;12.43;10.18;;;19.20;58.80;;;;;;5108492;28;20024;-66
2022/09/30 10:42:22;;;;;;;16.75;9.23;;;19.30;58.50;;;;;;5117037;28;20036;-65
2022/09/30 10:44:51;;;;;;;11.90;8.52;;;19.30;58.70;;;;;;5118500;28;20047;-66
2022/09/30 10:47:20;;;;;;;12.93;9.40;;;19.30;58.70;;;;;;5114422;28;20061;-66
2022/09/30 10:49:50;;;;;;;11.10;8.32;;;19.40;58.40;;;;;;5118046;28;20027;-66
2022/09/30 10:52:29;;;;;;;15.43;9.13;;;19.30;58.20;;;;;;5126459;27;20039;-66
2022/09/30 10:54:57;;;;;;;12.48;9.27;;;19.30;58.10;;;;;;5115361;28;20024;-66
2022/09/30 10:57:35;;;;;;;13.85;10.13;;;19.30;58.20;;;;;;5114381;27;20051;-66
2022/09/30 11:00:28;;;;;;;11.98;9.88;;;19.30;58.10;;;;;;5104770;28;20027;-66
2022/09/30 11:03:06;;;;;;;11.98;8.73;;;19.40;58.00;;;;;;5090012;27;20032;-66
2022/09/30 11:05:40;;;;;;;14.15;9.45;;;19.40;58.00;;;;;;5113552;28;20063;-66
2022/09/30 11:08:20;;;;;;;12.05;9.43;;;19.40;57.60;;;;;;5098873;27;20023;-65
2022/09/30 11:10:59;;;;;;;11.52;8.63;;;19.40;57.30;;;;;;5116298;27;20027;-65
2022/09/30 11:13:57;;;;;;;10.88;8.50;;;19.40;57.40;;;;;;5096917;28;20028;-66
2022/09/30 11:16:56;;;;;;;11.30;8.45;;;19.40;57.20;;;;;;5080961;28;20044;-66
2022/09/30 11:19:37;;;;;;;11.43;8.48;;;19.40;57.00;;;;;;5107966;28;20028;-66
2022/09/30 11:22:28;;;;;;;10.10;7.63;;;19.50;57.20;;;;;;5103060;28;20102;-65
2022/09/30 11:24:57;;;;;;;10.20;7.28;;;19.50;57.10;;;;;;5117909;28;20027;-65
2022/09/30 11:27:35;;;;;;;9.05;6.82;;;19.50;56.70;;;;;;5117352;27;20031;-65
2022/09/30 11:30:10;;;;;;;10.52;7.10;;;19.60;56.50;;;;;;5127230;27;20049;-68
2022/09/30 11:32:57;;;;;;;9.10;7.03;;;19.50;56.20;;;;;;5109910;28;20067;-68
2022/09/30 11:35:42;;;;;;;10.68;7.85;;;19.40;56.30;;;;;;5099150;28;20024;-68
2022/09/30 11:38:09;;;;;;;10.60;8.10;;;19.30;56.50;;;;;;5117663;27;20039;-68
2022/09/30 11:41:02;;;;;;;11.65;7.82;;;19.40;56.60;;;;;;5105923;28;20322;-68
2022/09/30 11:43:51;;;;;;;10.13;7.60;;;19.30;56.30;;;;;;5134131;27;20031;-68
2022/09/30 11:46:35;;;;;;;11.73;9.07;;;19.20;56.50;;;;;;5117267;27;20134;-68
2022/09/30 11:49:32;;;;;;;11.48;8.38;;;19.00;56.70;;;;;;5115603;28;20035;-67
2022/09/30 11:52:01;;;;;;;10.23;8.18;;;19.10;56.80;;;;;;5116392;27;20035;-67
2022/09/30 11:54:49;;;;;;;12.02;8.90;;;19.10;56.90;;;;;;5116473;27;20043;-67
2022/09/30 11:57:23;;;;;;;11.65;8.77;;;19.10;56.70;;;;;;5116845;27;20039;-67
2022/09/30 12:00:11;;;;;;;14.88;8.85;;;19.20;56.70;;;;;;5117505;27;20016;-67
2022/09/30 12:02:45;;;;;;;11.37;8.07;;;19.20;56.80;;;;;;5119869;27;20023;-67
2022/09/30 12:05:23;;;;;;;12.10;9.07;;;19.30;56.60;;;;;;5120713;27;20285;-68
2022/09/30 12:08:11;;;;;;;13.13;9.32;;;19.30;56.20;;;;;;5113955;27;20059;-68
2022/09/30 12:10:58;;;;;;;12.30;7.75;;;19.30;56.10;;;;;;5100362;28;20050;-67
2022/09/30 12:13:38;;;;;;;10.95;8.45;;;19.20;55.80;;;;;;5113652;27;20165;-65
2022/09/30 12:16:13;;;;;;;12.88;8.75;;;19.20;56.00;;;;;;5111771;28;20131;-65
2022/09/30 12:18:45;;;;;;;12.65;8.63;;;19.10;56.00;;;;;;5112331;28;20026;-65
2022/09/30 12:21:17;;;;;;;12.13;9.15;;;19.00;56.10;;;;;;5112626;28;20035;-66
2022/09/30 12:24:07;;;;;;;10.32;7.68;;;18.80;56.30;;;;;;5114917;28;20024;-66
2022/09/30 12:26:34;;;;;;;10.75;7.32;;;18.80;56.50;;;;;;5111980;28;20456;-66
2022/09/30 12:32:15;;;;;;;11.48;7.10;;;18.70;56.90;;;;;;5114191;27;20096;-66
2022/09/30 12:35:00;;;;;;;10.87;6.53;;;18.70;57.00;;;;;;5115117;27;20027;-64
2022/09/30 12:37:50;;;;;;;9.90;6.25;;;18.70;57.10;;;;;;5096475;28;20031;-65
2022/09/30 12:40:50;;;;;;;8.77;5.30;;;18.70;57.00;;;;;;5094708;27;20039;-64
2022/09/30 12:43:50;;;;;;;8.50;5.25;;;18.60;56.90;;;;;;5114876;27;20406;-65
2022/09/30 12:46:49;;;;;;;7.55;4.78;;;18.50;57.10;;;;;;5128423;27;20341;-66
2022/09/30 12:49:20;;;;;;;8.10;4.07;;;18.40;57.20;;;;;;5089693;28;20032;-65
2022/09/30 12:51:52;;;;;;;7.18;4.15;;;18.40;57.30;;;;;;5116364;27;20039;-65
2022/09/30 12:54:24;;;;;;;7.57;3.95;;;18.40;57.30;;;;;;5114509;28;20417;-65
2022/09/30 12:56:58;;;;;;;7.53;3.97;;;18.30;57.40;;;;;;5115911;28;20087;-65
2022/09/30 12:59:31;;;;;;;7.03;3.83;;;18.30;57.30;;;;;;5131078;27;20024;-65
2022/09/30 13:01:58;;;;;;;6.60;3.97;;;18.30;57.10;;;;;;5097380;28;20027;-65
2022/09/30 13:04:50;;;;;;;6.95;4.00;;;18.20;57.10;;;;;;5097895;28;20104;-65
2022/09/30 13:07:22;;;;;;;6.85;3.53;;;18.10;57.40;;;;;;5113684;28;20169;-65
2022/09/30 13:10:25;;;;;;;6.57;3.30;;;18.10;57.60;;;;;;5131732;27;20062;-64
2022/09/30 13:13:11;;;;;;;6.03;2.80;;;18.10;57.50;;;;;;5115951;28;20031;-65
2022/09/30 13:15:43;;;;;;;6.88;3.08;;;18.10;57.50;;;;;;5108376;27;20077;-64
2022/09/30 13:18:25;;;;;;;5.40;2.50;;;17.90;57.50;;;;;;5097495;28;20130;-65